createdAt,value
2022-09-15T00:00:00.174Z,987.46
2022-09-15T00:05:00.100Z,987.31
2022-09-15T00:10:00.157Z,987.28
2022-09-15T00:15:00.095Z,987.41
2022-09-15T00:20:00.130Z,987.34
2022-09-15T00:25:00.109Z,987.37
2022-09-15T00:30:00.167Z,987.33
2022-09-15T00:35:00.106Z,987.46
2022-09-15T00:40:00.199Z,987.52
2022-09-15T00:45:00.088Z,987.38
2022-09-15T00:50:00.103Z,987.42
2022-09-15T00:55:00.088Z,987.55
2022-09-15T01:00:00.168Z,987.65
2022-09-15T01:05:00.095Z,987.64
2022-09-15T01:10:00.115Z,987.53
2022-09-15T01:15:00.119Z,987.54
2022-09-15T01:20:00.249Z,987.57
2022-09-15T01:25:00.099Z,987.53
2022-09-15T01:30:00.104Z,987.7
2022-09-15T01:35:00.109Z,987.58
2022-09-15T01:40:00.278Z,987.67
2022-09-15T01:45:00.119Z,987.53
2022-09-15T01:50:00.132Z,987.52
2022-09-15T01:55:00.109Z,987.47
2022-09-15T02:00:00.222Z,987.64
2022-09-15T02:05:00.128Z,987.57
2022-09-15T02:10:00.258Z,987.46
2022-09-15T02:15:00.099Z,987.48
2022-09-15T02:20:00.143Z,987.41
2022-09-15T02:25:00.085Z,987.35
2022-09-15T02:30:00.150Z,987.34
2022-09-15T02:35:00.110Z,987.33
2022-09-15T02:40:00.384Z,987.4
2022-09-15T02:45:00.126Z,987.35
2022-09-15T02:50:00.093Z,987.41
2022-09-15T02:55:00.100Z,987.31
2022-09-15T03:00:00.183Z,987.31
2022-09-15T03:05:00.101Z,987.36
2022-09-15T03:10:00.111Z,987.33
2022-09-15T03:15:00.102Z,987.31
2022-09-15T03:20:00.132Z,987.25
2022-09-15T03:25:00.098Z,987.28
2022-09-15T03:30:00.168Z,987.25
2022-09-15T03:35:00.134Z,987.24
2022-09-15T03:40:00.199Z,987.41
2022-09-15T03:45:00.174Z,987.35
2022-09-15T03:50:00.097Z,987.39
2022-09-15T03:55:00.104Z,987.49
2022-09-15T04:00:00.137Z,987.41
2022-09-15T04:05:00.108Z,987.4
2022-09-15T04:10:00.098Z,987.45
2022-09-15T04:15:00.081Z,987.38
2022-09-15T04:20:00.125Z,987.51
2022-09-15T04:25:00.089Z,987.5
2022-09-15T04:30:00.102Z,987.5
2022-09-15T04:35:00.103Z,987.48
2022-09-15T04:40:00.269Z,987.43
2022-09-15T04:45:00.089Z,987.59
2022-09-15T04:50:00.107Z,987.67
2022-09-15T04:55:00.079Z,987.58
2022-09-15T05:00:00.163Z,987.62
2022-09-15T05:05:00.081Z,987.51
2022-09-15T05:10:00.097Z,987.59
2022-09-15T05:15:00.130Z,987.6
2022-09-15T05:20:00.110Z,987.64
2022-09-15T05:25:00.083Z,987.63
2022-09-15T05:30:16.458Z,987.65
2022-09-15T05:35:00.105Z,987.66
2022-09-15T05:40:00.229Z,987.74
2022-09-15T05:45:00.087Z,987.7
2022-09-15T05:50:00.094Z,987.72
2022-09-15T05:55:00.094Z,987.76
2022-09-15T06:00:00.143Z,987.71
2022-09-15T06:05:00.095Z,987.68
2022-09-15T06:10:00.097Z,987.72
2022-09-15T06:15:00.096Z,987.8
2022-09-15T06:20:00.161Z,987.79
2022-09-15T06:25:00.084Z,987.83
2022-09-15T06:30:00.122Z,987.81
2022-09-15T06:35:00.117Z,987.87
2022-09-15T06:40:00.242Z,987.92
2022-09-15T06:45:00.084Z,987.92
2022-09-15T06:50:00.081Z,988.05
2022-09-15T06:55:00.086Z,988.06
2022-09-15T07:00:00.128Z,988.06
2022-09-15T07:05:00.087Z,988.05
2022-09-15T07:10:00.136Z,988.03
2022-09-15T07:15:00.082Z,987.98
2022-09-15T07:20:00.209Z,988.04
2022-09-15T07:25:00.095Z,988.15
2022-09-15T07:30:00.154Z,988.13
2022-09-15T07:35:00.088Z,988.21
2022-09-15T07:40:00.242Z,988.19
2022-09-15T07:45:00.078Z,988.26
2022-09-15T07:50:00.095Z,988.38
2022-09-15T07:55:00.122Z,988.31
2022-09-15T08:00:00.148Z,988.42
2022-09-15T08:05:00.109Z,988.45
2022-09-15T08:10:00.120Z,988.43
2022-09-15T08:15:00.080Z,988.4
2022-09-15T08:20:00.109Z,988.47
2022-09-15T08:25:00.090Z,988.51
2022-09-15T08:30:00.121Z,988.46
2022-09-15T08:35:00.077Z,988.52
2022-09-15T08:40:00.295Z,988.57
2022-09-15T08:45:00.086Z,988.62
2022-09-15T08:50:00.093Z,988.75
2022-09-15T08:55:00.098Z,988.66
2022-09-15T09:00:00.217Z,988.64
2022-09-15T09:05:00.091Z,988.56
2022-09-15T09:10:00.125Z,988.57
2022-09-15T09:15:00.097Z,988.62
2022-09-15T09:20:00.197Z,988.77
2022-09-15T09:25:00.102Z,988.75
2022-09-15T09:30:00.130Z,988.64
2022-09-15T09:35:00.092Z,988.58
2022-09-15T09:40:00.221Z,988.58
2022-09-15T09:45:00.092Z,988.52
2022-09-15T09:50:00.089Z,988.63
2022-09-15T09:55:00.238Z,988.49
2022-09-15T10:00:00.133Z,988.58
2022-09-15T10:05:00.192Z,988.46
2022-09-15T10:10:00.106Z,988.42
2022-09-15T10:15:00.133Z,988.35
2022-09-15T10:20:00.132Z,988.42
2022-09-15T10:25:00.095Z,988.29
2022-09-15T10:30:00.129Z,988.31
2022-09-15T10:35:00.098Z,988.31
2022-09-15T10:40:00.266Z,988.26
2022-09-15T10:45:00.165Z,988.14
2022-09-15T10:50:00.080Z,988.13
2022-09-15T10:55:00.084Z,988.15
2022-09-15T11:00:00.136Z,988.21
2022-09-15T11:05:00.083Z,988.26
2022-09-15T11:10:00.118Z,988.39
2022-09-15T11:15:00.087Z,988.45
2022-09-15T11:20:00.141Z,988.4
2022-09-15T11:25:00.081Z,988.48
2022-09-15T11:30:00.109Z,988.53
2022-09-15T11:35:00.081Z,988.54
2022-09-15T11:40:00.347Z,988.7
2022-09-15T11:45:00.087Z,988.65
2022-09-15T11:50:00.135Z,988.51
2022-09-15T11:55:00.090Z,988.49
2022-09-15T12:00:00.174Z,988.53
2022-09-15T12:05:00.098Z,988.54
2022-09-15T12:10:00.101Z,988.55
2022-09-15T12:15:00.095Z,988.55
2022-09-15T12:20:00.162Z,988.46
2022-09-15T12:25:01.076Z,988.5
2022-09-15T12:30:00.146Z,988.44
2022-09-15T12:35:00.120Z,988.51
2022-09-15T12:40:00.234Z,988.43
2022-09-15T12:45:00.131Z,988.51
2022-09-15T12:50:00.149Z,988.45
2022-09-15T12:55:00.102Z,988.52
2022-09-15T13:00:00.164Z,988.61
2022-09-15T13:05:00.094Z,988.65
2022-09-15T13:10:00.122Z,988.63
2022-09-15T13:15:00.165Z,988.54
2022-09-15T13:20:00.124Z,988.53
2022-09-15T13:25:01.444Z,988.57
2022-09-15T13:30:00.122Z,988.58
2022-09-15T13:35:03.483Z,988.56
2022-09-15T13:40:00.159Z,988.57
2022-09-15T13:45:00.136Z,988.58
2022-09-15T13:50:00.107Z,988.5
2022-09-15T13:55:00.088Z,988.54
2022-09-15T14:00:00.257Z,988.55
2022-09-15T14:05:00.089Z,988.51
2022-09-15T14:10:00.212Z,988.47
2022-09-15T14:15:00.093Z,988.45
2022-09-15T14:20:00.132Z,988.42
2022-09-15T14:25:00.081Z,988.41
2022-09-15T14:30:00.134Z,988.41
2022-09-15T14:35:00.109Z,988.37
2022-09-15T14:40:00.331Z,988.37
2022-09-15T14:50:00.124Z,988.2
2022-09-15T14:55:00.114Z,988.26
2022-09-15T15:00:00.168Z,988.25
2022-09-15T15:05:00.130Z,988.22
2022-09-15T15:10:00.142Z,988.16
2022-09-15T15:15:00.110Z,988.1
2022-09-15T15:20:00.171Z,988.16
2022-09-15T15:25:00.094Z,988.19
2022-09-15T15:30:00.114Z,988.26
2022-09-15T15:35:00.124Z,988.26
2022-09-15T15:40:00.195Z,988.3
2022-09-15T15:45:00.097Z,988.22
2022-09-15T15:50:12.639Z,988.21
2022-09-15T15:55:00.091Z,988.36
2022-09-15T16:00:00.139Z,988.34
2022-09-15T16:05:00.110Z,988.36
2022-09-15T16:10:00.145Z,988.37
2022-09-15T16:15:00.083Z,988.34
2022-09-15T16:20:00.135Z,988.46
2022-09-15T16:25:00.103Z,988.36
2022-09-15T16:30:00.104Z,988.4
2022-09-15T16:35:00.108Z,988.44
2022-09-15T16:40:00.223Z,988.4
2022-09-15T16:45:00.095Z,988.44
2022-09-15T16:50:00.112Z,988.49
2022-09-15T16:55:00.105Z,988.54
2022-09-15T17:00:00.143Z,988.5
2022-09-15T17:05:00.109Z,988.61
2022-09-15T17:10:00.124Z,988.61
2022-09-15T17:15:00.102Z,988.63
2022-09-15T17:20:00.161Z,988.62
2022-09-15T17:25:00.131Z,988.67
2022-09-15T17:30:00.161Z,988.57
2022-09-15T17:35:00.111Z,988.52
2022-09-15T17:40:00.263Z,988.59
2022-09-15T17:45:00.083Z,988.69
2022-09-15T17:50:00.129Z,988.61
2022-09-15T17:55:00.084Z,988.64
2022-09-15T18:00:00.143Z,988.78
2022-09-15T18:05:00.126Z,988.72
2022-09-15T18:10:00.163Z,988.72
2022-09-15T18:15:00.105Z,988.76
2022-09-15T18:20:00.146Z,988.9
2022-09-15T18:25:00.087Z,988.91
2022-09-15T18:30:00.131Z,988.99
2022-09-15T18:35:00.120Z,988.92
2022-09-15T18:40:00.208Z,989.06
2022-09-15T18:45:00.116Z,989.11
2022-09-15T18:50:00.141Z,989.11
2022-09-15T18:55:00.095Z,989.18
2022-09-15T19:00:00.138Z,989.1
2022-09-15T19:05:00.106Z,989.17
2022-09-15T19:10:00.108Z,989.14
2022-09-15T19:15:00.112Z,989.3
2022-09-15T19:20:00.137Z,989.25
2022-09-15T19:25:00.104Z,989.35
2022-09-15T19:30:00.118Z,989.27
2022-09-15T19:35:00.127Z,989.26
2022-09-15T19:40:00.232Z,989.27
2022-09-15T19:45:00.083Z,989.3
2022-09-15T19:50:00.090Z,989.26
2022-09-15T19:55:00.105Z,989.25
2022-09-15T20:00:00.139Z,989.29
2022-09-15T20:05:00.082Z,989.29
2022-09-15T20:10:00.203Z,989.37
2022-09-15T20:15:00.094Z,989.53
2022-09-15T20:20:00.147Z,989.61
2022-09-15T20:25:00.091Z,989.59
2022-09-15T20:30:00.107Z,989.7
2022-09-15T20:35:00.130Z,989.66
2022-09-15T20:40:00.238Z,989.7
2022-09-15T20:45:00.139Z,989.57
2022-09-15T20:50:00.095Z,989.61
2022-09-15T20:55:00.099Z,989.57
2022-09-15T21:00:00.228Z,989.63
2022-09-15T21:05:00.090Z,989.62
2022-09-15T21:10:00.113Z,989.62
2022-09-15T21:15:00.106Z,989.65
2022-09-15T21:20:00.116Z,989.68
2022-09-15T21:25:00.101Z,989.75
2022-09-15T21:30:00.118Z,989.81
2022-09-15T21:35:00.124Z,989.96
2022-09-15T21:40:00.273Z,990.15
2022-09-15T21:45:00.095Z,990.2
2022-09-15T21:50:00.139Z,990.22
2022-09-15T21:55:00.084Z,990.27
2022-09-15T22:00:00.127Z,990.32
2022-09-15T22:05:00.093Z,990.26
2022-09-15T22:10:00.105Z,990.21
2022-09-15T22:15:00.115Z,990.26
2022-09-15T22:20:00.140Z,990.3
2022-09-15T22:25:00.091Z,990.29
2022-09-15T22:30:00.117Z,990.28
2022-09-15T22:35:00.082Z,990.22
2022-09-15T22:40:00.252Z,990.24
2022-09-15T22:45:00.103Z,990.32
2022-09-15T22:50:00.115Z,990.25
2022-09-15T22:55:00.120Z,990.28
2022-09-15T23:00:00.159Z,990.21
2022-09-15T23:05:00.103Z,990.18
2022-09-15T23:10:00.093Z,990.19
2022-09-15T23:15:00.138Z,990.13
2022-09-15T23:20:00.147Z,990.21
2022-09-15T23:25:00.099Z,990.18
2022-09-15T23:30:00.129Z,990.25
2022-09-15T23:35:00.098Z,990.32
2022-09-15T23:40:00.216Z,990.22
2022-09-15T23:45:00.101Z,990.21
2022-09-15T23:50:00.123Z,990.22
2022-09-15T23:55:00.110Z,990.22
